createdAt,value
2024-02-13T05:43:34.986Z,99314.39
2024-02-13T05:46:03.908Z,99325.30
2024-02-13T05:48:31.385Z,99328.41
2024-02-13T05:50:58.894Z,99340.88
2024-02-13T05:53:30.292Z,99339.09
2024-02-13T05:55:57.723Z,99344.97
2024-02-13T05:58:29.948Z,99351.89
2024-02-13T06:00:59.222Z,99357.27
2024-02-13T06:03:29.594Z,99352.71
2024-02-13T06:05:57.558Z,99352.54
2024-02-13T06:08:25.204Z,99353.92
2024-02-13T06:10:53.130Z,99356.36
2024-02-13T06:13:21.369Z,99350.61
2024-02-13T06:15:48.814Z,99347.29
2024-02-13T06:18:16.562Z,99346.41
2024-02-13T06:20:45.485Z,99342.23
2024-02-13T06:23:14.253Z,99344.67
2024-02-13T06:25:42.532Z,99343.80
2024-02-13T06:32:43.539Z,99351.88
2024-02-13T06:39:59.558Z,99361.88
2024-02-13T06:43:47.037Z,99365.16
2024-02-13T06:46:51.743Z,99369.81
2024-02-13T06:49:37.653Z,99369.99
2024-02-13T06:52:06.004Z,99375.58
2024-02-13T06:54:35.573Z,99374.68
2024-02-13T06:57:03.405Z,99376.06
2024-02-13T06:59:33.179Z,99378.09
2024-02-13T07:02:01.201Z,99379.45
2024-02-13T07:04:28.732Z,99377.14
2024-02-13T07:07:08.897Z,99379.70
2024-02-13T07:09:51.568Z,99378.77
2024-02-13T07:12:23.717Z,99380.80
2024-02-13T07:14:53.730Z,99377.42
2024-02-13T07:21:29.299Z,99378.84
2024-02-13T07:23:57.156Z,99378.98
2024-02-13T07:26:26.466Z,99381.03
2024-02-13T07:28:54.460Z,99381.18
2024-02-13T07:31:22.468Z,99381.48
2024-02-13T07:33:55.671Z,99387.73
2024-02-13T07:36:26.091Z,99390.45
2024-02-13T07:42:12.426Z,99397.55
2024-02-13T07:45:28.688Z,99403.58
2024-02-13T07:47:56.387Z,99403.15
2024-02-13T07:50:42.178Z,99408.71
2024-02-13T07:53:42.038Z,99410.43
2024-02-13T07:56:12.227Z,99406.77
2024-02-13T07:58:40.663Z,99414.20
2024-02-13T08:01:11.626Z,99415.60
2024-02-13T08:03:40.854Z,99414.55
2024-02-13T08:06:10.111Z,99414.20
2024-02-13T08:08:37.813Z,99410.73
2024-02-13T08:11:06.129Z,99408.68
2024-02-13T08:13:33.764Z,99408.88
2024-02-13T08:16:01.174Z,99409.04
2024-02-13T08:18:40.171Z,99414.40
2024-02-13T08:21:18.373Z,99404.42
2024-02-13T08:23:49.374Z,99408.73
2024-02-13T08:26:19.136Z,99411.65
2024-02-13T08:28:49.242Z,99417.31
2024-02-13T08:31:18.749Z,99418.09
2024-02-13T08:33:52.450Z,99414.57
2024-02-13T08:36:20.450Z,99415.39
2024-02-13T08:38:48.206Z,99412.24
2024-02-13T08:41:16.214Z,99413.09
2024-02-13T08:43:45.122Z,99417.61
2024-02-13T08:46:29.328Z,99415.89
2024-02-13T08:49:04.022Z,99419.05
2024-02-13T08:52:01.571Z,99421.10
2024-02-13T08:54:37.169Z,99419.20
2024-02-13T08:57:26.987Z,99419.92
2024-02-13T09:00:37.070Z,99419.94
2024-02-13T09:03:27.228Z,99418.20
2024-02-13T09:06:18.818Z,99421.13
2024-02-13T09:12:37.850Z,99422.08
2024-02-13T09:16:14.627Z,99426.17
2024-02-13T09:24:12.509Z,99430.41
2024-02-13T09:27:14.741Z,99425.86
2024-02-13T09:30:10.062Z,99424.02
2024-02-13T09:32:44.162Z,99417.49
2024-02-13T09:35:12.022Z,99417.58
2024-02-13T09:37:44.368Z,99415.00
2024-02-13T09:40:18.682Z,99409.98
2024-02-13T09:42:54.739Z,99403.43
2024-02-13T09:45:24.725Z,99406.34
2024-02-13T09:47:54.069Z,99404.84
2024-02-13T09:50:21.836Z,99404.92
2024-02-13T09:52:52.045Z,99404.35
2024-02-13T09:55:23.513Z,99402.09
2024-02-13T09:58:23.348Z,99402.25
2024-02-13T10:01:13.689Z,99401.38
2024-02-13T10:04:08.691Z,99399.52
2024-02-13T10:06:36.911Z,99397.75
2024-02-13T10:09:13.167Z,99396.86
2024-02-13T10:11:54.601Z,99397.70
2024-02-13T10:14:25.064Z,99398.56
2024-02-13T10:16:52.525Z,99400.63
2024-02-13T10:19:24.427Z,99399.17
2024-02-13T10:21:52.885Z,99403.34
2024-02-13T10:24:23.881Z,99404.54
2024-02-13T10:26:55.128Z,99403.45
2024-02-13T10:29:23.090Z,99403.99
2024-02-13T10:31:50.791Z,99398.91
2024-02-13T10:34:19.577Z,99394.69
2024-02-13T10:36:47.191Z,99395.69
2024-02-13T10:39:16.771Z,99393.75
2024-02-13T10:41:46.789Z,99388.84
2024-02-13T10:44:17.653Z,99387.27
2024-02-13T10:46:46.768Z,99384.61
2024-02-13T10:49:15.494Z,99382.10
2024-02-13T10:51:43.073Z,99381.70
2024-02-13T10:54:11.215Z,99378.28
2024-02-13T10:56:39.084Z,99376.27
2024-02-13T10:59:07.082Z,99373.81
2024-02-13T11:01:39.502Z,99377.65
2024-02-13T11:04:07.455Z,99376.95
2024-02-13T11:06:35.227Z,99377.10
2024-02-13T11:09:03.041Z,99381.09
2024-02-13T11:11:30.736Z,99372.89
2024-02-13T11:13:59.360Z,99374.96
2024-02-13T11:16:27.648Z,99373.40
2024-02-13T11:18:55.408Z,99370.27
2024-02-13T11:21:23.498Z,99371.55
2024-02-13T11:24:13.659Z,99370.64
2024-02-13T11:26:41.179Z,99371.30
2024-02-13T11:29:12.835Z,99366.58
2024-02-13T11:31:41.263Z,99365.83
2024-02-13T11:34:10.702Z,99366.15
2024-02-13T11:36:38.736Z,99361.77
2024-02-13T11:39:08.705Z,99359.17
2024-02-13T11:41:36.682Z,99358.05
2024-02-13T11:44:09.632Z,99359.18
2024-02-13T11:46:41.244Z,99357.44
2024-02-13T11:49:11.683Z,99356.52
2024-02-13T11:51:40.895Z,99353.46
2024-02-13T11:54:08.684Z,99353.21
2024-02-13T11:56:37.244Z,99353.35
2024-02-13T11:59:08.245Z,99351.27
2024-02-13T12:01:39.365Z,99347.84
2024-02-13T12:04:14.060Z,99350.27
2024-02-13T12:06:42.561Z,99354.27
2024-02-13T12:09:10.367Z,99350.23
2024-02-13T12:11:38.682Z,99354.22
2024-02-13T12:14:07.361Z,99359.74
2024-02-13T12:16:36.357Z,99362.73
2024-02-13T12:19:05.111Z,99362.71
2024-02-13T12:21:33.439Z,99365.92
2024-02-13T12:24:02.698Z,99366.30
2024-02-13T12:26:31.266Z,99363.55
2024-02-13T12:28:59.667Z,99367.38
2024-02-13T12:31:31.872Z,99367.33
2024-02-13T12:34:06.913Z,99369.55
2024-02-13T12:36:35.857Z,99369.14
2024-02-13T12:39:09.991Z,99372.83
2024-02-13T12:41:37.764Z,99378.42
2024-02-13T12:44:05.438Z,99379.63
2024-02-13T12:46:38.529Z,99377.21
2024-02-13T12:49:12.327Z,99378.81
2024-02-13T12:51:45.123Z,99376.22
2024-02-13T12:54:13.205Z,99380.27
2024-02-13T12:56:44.261Z,99377.93
2024-02-13T12:59:13.968Z,99376.77
2024-02-13T13:01:46.075Z,99379.60
2024-02-13T13:04:15.331Z,99376.94
2024-02-13T13:06:45.768Z,99373.39
2024-02-13T13:09:23.531Z,99374.69
2024-02-13T13:11:55.489Z,99375.52
2024-02-13T13:14:24.990Z,99375.79
2024-02-13T13:16:53.386Z,99373.33
2024-02-13T13:19:24.551Z,99373.30
2024-02-13T13:21:54.519Z,99374.18
2024-02-13T13:24:24.096Z,99375.94
2024-02-13T13:26:52.041Z,99374.73
2024-02-13T13:29:20.237Z,99374.20
2024-02-13T13:31:50.361Z,99378.23
2024-02-13T13:34:22.067Z,99376.50
2024-02-13T13:36:51.277Z,99378.41
2024-02-13T13:39:18.980Z,99377.00
2024-02-13T13:41:46.590Z,99375.08
2024-02-13T13:44:15.166Z,99376.01
2024-02-13T13:46:42.917Z,99373.69
2024-02-13T13:49:11.501Z,99373.68
2024-02-13T13:51:41.936Z,99377.65
2024-02-13T13:54:09.430Z,99376.17
2024-02-13T13:56:37.003Z,99376.08
2024-02-13T13:59:05.863Z,99376.69
2024-02-13T14:01:33.255Z,99375.48
2024-02-13T14:04:01.302Z,99379.67
2024-02-13T14:06:29.003Z,99377.73
2024-02-13T14:08:56.759Z,99374.73
2024-02-13T14:11:24.332Z,99376.30
2024-02-13T14:13:53.773Z,99372.98
2024-02-13T14:16:21.539Z,99372.84
2024-02-13T14:18:49.685Z,99379.00
2024-02-13T14:21:17.643Z,99376.95
2024-02-13T14:23:45.246Z,99386.91
2024-02-13T14:26:12.953Z,99386.06
2024-02-13T14:28:40.666Z,99388.40
2024-02-13T14:31:08.173Z,99390.91
2024-02-13T14:33:36.531Z,99392.66
2024-02-13T14:36:04.686Z,99390.48
2024-02-13T14:38:33.230Z,99384.83
2024-02-13T14:41:00.837Z,99383.41
2024-02-13T14:43:28.963Z,99378.30
2024-02-13T14:46:00.175Z,99369.75
2024-02-13T14:48:28.619Z,99369.06
2024-02-13T14:50:56.398Z,99373.09
2024-02-13T14:53:25.194Z,99373.52
2024-02-13T14:55:52.804Z,99376.34
2024-02-13T14:58:34.064Z,99383.51
2024-02-13T15:01:10.816Z,99391.38
2024-02-13T15:03:38.684Z,99403.27
2024-02-13T15:06:06.426Z,99397.59
2024-02-13T15:08:35.905Z,99391.50
2024-02-13T15:11:05.248Z,99380.23
2024-02-13T15:13:35.567Z,99379.42
